createdAt,value
2023-04-18T00:01:44.906Z,826.00
2023-04-18T00:06:43.191Z,815.00
2023-04-18T00:11:41.460Z,817.00
2023-04-18T00:16:40.807Z,805.00
2023-04-18T00:21:40.870Z,800.00
2023-04-18T00:26:39.156Z,797.00
2023-04-18T00:31:37.417Z,793.00
2023-04-18T00:36:37.713Z,785.00
2023-04-18T00:41:36.999Z,775.00
2023-04-18T00:46:35.327Z,774.00
2023-04-18T00:51:35.974Z,775.00
2023-04-18T00:56:34.654Z,769.00
2023-04-18T01:01:33.981Z,760.00
2023-04-18T01:06:31.258Z,752.00
2023-04-18T01:11:32.612Z,756.00
2023-04-18T01:16:31.869Z,757.00
2023-04-18T01:21:31.159Z,755.00
2023-04-18T01:26:30.431Z,746.00
2023-04-18T01:31:30.770Z,737.00
2023-04-18T01:36:29.000Z,736.00
2023-04-18T01:41:30.279Z,735.00
2023-04-18T01:46:28.643Z,735.00
2023-04-18T01:51:26.708Z,736.00
2023-04-18T01:56:26.012Z,734.00
2023-04-18T02:01:26.300Z,725.00
2023-04-18T02:06:24.549Z,727.00
2023-04-18T02:11:25.812Z,725.00
2023-04-18T02:16:25.132Z,722.00
2023-04-18T02:21:22.353Z,708.00
2023-04-18T02:26:21.611Z,717.00
2023-04-18T02:31:20.901Z,713.00
2023-04-18T02:36:20.142Z,712.00
2023-04-18T02:41:20.402Z,706.00
2023-04-18T02:46:19.685Z,701.00
2023-04-18T02:51:17.948Z,697.00
2023-04-18T02:56:18.195Z,701.00
2023-04-18T03:01:17.457Z,704.00
2023-04-18T03:06:15.702Z,700.00
2023-04-18T03:11:14.942Z,697.00
2023-04-18T03:16:15.219Z,694.00
2023-04-18T03:21:14.521Z,698.00
2023-04-18T03:26:13.816Z,699.00
2023-04-18T03:31:11.151Z,701.00
2023-04-18T03:36:11.421Z,697.00
2023-04-18T03:41:10.696Z,702.00
2023-04-18T03:46:10.039Z,699.00
2023-04-18T03:51:09.309Z,700.00
2023-04-18T03:56:08.624Z,698.00
2023-04-18T04:01:07.903Z,701.00
2023-04-18T04:06:07.199Z,696.00
2023-04-18T04:11:06.510Z,693.00
2023-04-18T04:16:05.865Z,694.00
2023-04-18T04:21:04.912Z,693.00
2023-04-18T04:26:04.194Z,694.00
2023-04-18T04:31:03.475Z,694.00
2023-04-18T04:36:01.711Z,694.00
2023-04-18T04:41:02.974Z,692.00
2023-04-18T04:46:01.304Z,688.00
2023-04-18T04:51:01.392Z,684.00
2023-04-18T04:55:59.662Z,688.00
2023-04-18T05:01:04.022Z,688.00
2023-04-18T05:05:58.214Z,686.00
2023-04-18T05:10:57.501Z,681.00
2023-04-18T05:15:56.772Z,681.00
2023-04-18T05:20:56.052Z,680.00
2023-04-18T05:25:56.307Z,683.00
2023-04-18T05:30:55.609Z,681.00
2023-04-18T05:35:53.884Z,676.00
2023-04-18T05:40:53.091Z,681.00
2023-04-18T05:45:55.891Z,688.00
2023-04-18T05:50:53.700Z,682.00
2023-04-18T05:55:50.933Z,679.00
2023-04-18T06:00:50.229Z,681.00
2023-04-18T06:05:49.536Z,676.00
2023-04-18T06:10:50.625Z,673.00
2023-04-18T06:15:46.899Z,684.00
2023-04-18T06:20:48.147Z,675.00
2023-04-18T06:25:47.432Z,684.00
2023-04-18T06:30:46.752Z,676.00
2023-04-18T06:35:45.997Z,679.00
2023-04-18T06:40:44.270Z,670.00
2023-04-18T06:45:43.602Z,671.00
2023-04-18T06:50:42.846Z,673.00
2023-04-18T06:55:42.122Z,668.00
2023-04-18T07:00:41.402Z,670.00
2023-04-18T07:05:40.677Z,680.00
2023-04-18T07:10:39.950Z,677.00
2023-04-18T07:15:39.240Z,672.00
2023-04-18T07:20:39.504Z,668.00
2023-04-18T07:25:37.808Z,661.00
2023-04-18T07:30:37.110Z,662.00
2023-04-18T07:35:37.423Z,738.00
2023-04-18T07:40:36.708Z,700.00
2023-04-18T07:45:34.970Z,718.00
2023-04-18T07:50:33.278Z,715.00
2023-04-18T07:55:35.581Z,710.00
2023-04-18T08:00:33.830Z,714.00
2023-04-18T08:05:34.341Z,715.00
2023-04-18T08:10:32.412Z,704.00
2023-04-18T08:15:33.045Z,702.00
2023-04-18T08:20:29.929Z,684.00
2023-04-18T08:25:30.231Z,688.00
2023-04-18T08:30:30.482Z,691.00
2023-04-18T08:35:28.768Z,696.00
2023-04-18T08:40:29.050Z,687.00
2023-04-18T08:45:27.304Z,690.00
2023-04-18T08:50:25.571Z,683.00
2023-04-18T08:55:24.851Z,685.00
2023-04-18T09:00:24.115Z,683.00
2023-04-18T09:05:23.380Z,679.00
2023-04-18T09:10:23.653Z,677.00
2023-04-18T09:15:21.950Z,672.00
2023-04-18T09:20:22.232Z,679.00
2023-04-18T09:25:20.494Z,687.00
2023-04-18T09:30:19.768Z,680.00
2023-04-18T09:35:21.018Z,666.00
2023-04-18T09:40:18.309Z,668.00
2023-04-18T09:45:18.612Z,668.00
2023-04-18T09:50:17.936Z,673.00
2023-04-18T09:55:17.196Z,666.00
2023-04-18T10:00:15.522Z,666.00
2023-04-18T10:05:14.851Z,662.00
2023-04-18T10:10:13.955Z,660.00
2023-04-18T10:15:13.242Z,656.00
2023-04-18T10:20:12.558Z,658.00
2023-04-18T10:25:10.826Z,659.00
2023-04-18T10:30:11.100Z,647.00
2023-04-18T10:35:10.390Z,655.00
2023-04-18T10:40:09.659Z,648.00
2023-04-18T10:45:08.919Z,652.00
2023-04-18T10:50:08.188Z,643.00
2023-04-18T10:55:07.467Z,648.00
2023-04-18T11:00:06.767Z,646.00
2023-04-18T11:05:06.056Z,640.00
2023-04-18T11:10:06.376Z,645.00
2023-04-18T11:15:04.649Z,642.00
2023-04-18T11:20:03.978Z,643.00
2023-04-18T11:25:03.252Z,648.00
2023-04-18T11:30:02.516Z,638.00
2023-04-18T11:35:02.791Z,641.00
2023-04-18T11:40:01.076Z,641.00
2023-04-18T11:45:01.361Z,641.00
2023-04-18T11:49:59.612Z,641.00
2023-04-18T11:54:58.935Z,643.00
2023-04-18T11:59:59.222Z,637.00
2023-04-18T12:04:57.813Z,641.00
2023-04-18T12:09:58.781Z,634.00
2023-04-18T12:14:56.075Z,637.00
2023-04-18T12:19:55.364Z,637.00
2023-04-18T12:24:54.687Z,639.00
2023-04-18T12:29:54.948Z,640.00
2023-04-18T12:34:53.214Z,630.00
2023-04-18T12:39:52.488Z,637.00
2023-04-18T12:44:58.954Z,625.00
2023-04-18T12:49:51.017Z,634.00
2023-04-18T12:54:50.297Z,632.00
2023-04-18T12:59:50.564Z,631.00
2023-04-18T13:04:49.923Z,637.00
2023-04-18T13:09:49.027Z,629.00
2023-04-18T13:14:47.325Z,632.00
2023-04-18T13:19:47.629Z,636.00
2023-04-18T13:24:45.952Z,641.00
2023-04-18T13:29:46.297Z,638.00
2023-04-18T13:34:45.408Z,632.00
2023-04-18T13:39:44.667Z,636.00
2023-04-18T13:44:43.925Z,630.00
2023-04-18T13:49:42.193Z,636.00
2023-04-18T13:54:42.466Z,637.00
2023-04-18T13:59:40.757Z,630.00
2023-04-18T14:04:40.128Z,631.00
2023-04-18T14:09:39.283Z,632.00
2023-04-18T14:14:38.578Z,633.00
2023-04-18T14:19:37.834Z,631.00
2023-04-18T14:24:36.120Z,630.00
2023-04-18T14:29:37.412Z,632.00
2023-04-18T14:34:36.793Z,627.00
2023-04-18T14:39:35.047Z,627.00
2023-04-18T14:44:33.316Z,632.00
2023-04-18T14:49:34.627Z,621.00
2023-04-18T14:54:32.726Z,625.00
2023-04-18T14:59:32.159Z,620.00
2023-04-18T15:04:32.590Z,634.00
2023-04-18T15:09:30.792Z,632.00
2023-04-18T15:14:31.235Z,628.00
2023-04-18T15:19:29.395Z,626.00
2023-04-18T15:24:28.695Z,620.00
2023-04-18T15:29:29.007Z,619.00
2023-04-18T15:34:29.290Z,626.00
2023-04-18T15:39:27.589Z,626.00
2023-04-18T15:44:25.885Z,625.00
2023-04-18T15:49:27.192Z,632.00
2023-04-18T15:54:24.488Z,625.00
2023-04-18T15:59:23.779Z,627.00
2023-04-18T16:04:24.100Z,627.00
2023-04-18T16:09:23.208Z,624.00
2023-04-18T16:14:21.489Z,627.00
2023-04-18T16:19:24.767Z,623.00
2023-04-18T16:24:21.016Z,620.00
2023-04-18T16:29:19.298Z,622.00
2023-04-18T16:34:18.791Z,620.00
2023-04-18T16:39:17.898Z,623.00
2023-04-18T16:44:18.364Z,627.00
2023-04-18T16:49:17.463Z,628.00
2023-04-18T16:54:16.716Z,627.00
2023-04-18T16:59:15.007Z,625.00
2023-04-18T17:04:15.397Z,626.00
2023-04-18T17:09:13.664Z,628.00
2023-04-18T17:14:14.120Z,632.00
2023-04-18T17:19:13.330Z,629.00
2023-04-18T17:24:12.451Z,629.00
2023-04-18T17:29:10.703Z,625.00
2023-04-18T17:34:08.719Z,621.00
2023-04-18T17:39:09.143Z,619.00
2023-04-18T17:44:08.393Z,621.00
2023-04-18T17:49:07.671Z,625.00
2023-04-18T17:54:07.783Z,627.00
2023-04-18T17:59:06.226Z,623.00
2023-04-18T18:04:05.595Z,625.00
2023-04-18T18:09:04.748Z,687.00
2023-04-18T18:14:04.972Z,669.00
2023-04-18T18:19:03.219Z,672.00
2023-04-18T18:24:02.619Z,667.00
2023-04-18T18:29:01.778Z,664.00
2023-04-18T18:34:06.838Z,664.00
2023-04-18T18:39:01.312Z,653.00
2023-04-18T18:43:59.586Z,644.00
2023-04-18T18:48:59.897Z,652.00
2023-04-18T18:53:58.231Z,653.00
2023-04-18T18:58:59.243Z,650.00
2023-04-18T19:03:56.765Z,646.00
2023-04-18T19:08:56.884Z,699.00
2023-04-18T19:13:55.018Z,721.00
2023-04-18T19:18:59.208Z,704.00
2023-04-18T19:23:57.457Z,696.00
2023-04-18T19:28:51.587Z,700.00
2023-04-18T19:33:51.755Z,712.00
2023-04-18T19:38:50.938Z,743.00
2023-04-18T19:43:53.655Z,766.00
2023-04-18T19:48:49.200Z,762.00
2023-04-18T19:53:49.421Z,795.00
2023-04-18T19:58:47.723Z,795.00
2023-04-18T20:03:47.307Z,832.00
2023-04-18T20:08:46.281Z,864.00
2023-04-18T20:13:45.469Z,875.00
2023-04-18T20:18:45.677Z,885.00
2023-04-18T20:23:43.632Z,876.00
2023-04-18T20:28:42.934Z,897.00
2023-04-18T20:33:42.545Z,914.00
2023-04-18T20:38:43.857Z,926.00
2023-04-18T20:43:41.910Z,926.00
2023-04-18T20:48:40.165Z,953.00
2023-04-18T20:53:39.314Z,952.00
2023-04-18T20:58:38.884Z,951.00
2023-04-18T21:03:38.866Z,929.00
2023-04-18T21:08:37.996Z,939.00
2023-04-18T21:13:37.220Z,969.00
2023-04-18T21:18:35.481Z,964.00
2023-04-18T21:23:38.800Z,976.00
2023-04-18T21:28:34.075Z,976.00
2023-04-18T21:33:33.336Z,988.00
2023-04-18T21:38:32.746Z,997.00
2023-04-18T21:43:31.803Z,997.00
2023-04-18T21:48:31.106Z,993.00
2023-04-18T21:53:31.341Z,1014.00
2023-04-18T21:58:28.824Z,1017.00
2023-04-18T22:03:29.159Z,949.00
2023-04-18T22:08:28.204Z,982.00
2023-04-18T22:13:28.460Z,991.00
2023-04-18T22:18:28.719Z,956.00
2023-04-18T22:23:26.018Z,963.00
2023-04-18T22:28:26.282Z,943.00
2023-04-18T22:33:24.591Z,931.00
2023-04-18T22:38:23.846Z,917.00
2023-04-18T22:43:23.122Z,908.00
2023-04-18T22:48:23.404Z,910.00
2023-04-18T22:53:21.694Z,888.00
2023-04-18T22:58:21.002Z,874.00
2023-04-18T23:03:20.396Z,868.00
2023-04-18T23:08:18.582Z,861.00
2023-04-18T23:13:19.882Z,852.00
2023-04-18T23:18:20.171Z,854.00
2023-04-18T23:23:20.547Z,846.00
2023-04-18T23:28:16.650Z,828.00
2023-04-18T23:33:17.953Z,831.00
2023-04-18T23:38:15.226Z,815.00
2023-04-18T23:43:14.486Z,813.00
2023-04-18T23:48:14.791Z,816.00
2023-04-18T23:53:14.064Z,799.00
2023-04-18T23:58:14.346Z,804.00
